Map

Track Data

SID SEASON NUMBER BASIN SUBBASIN NAME ISO_TIME NATURE LAT LON WMO_WIND WMO_PRES WMO_AGENCY TRACK_TYPE DIST2LAND LANDFALL IFLAG USA_AGENCY USA_ATCF_ID USA_LAT USA_LON USA_RECORD USA_STATUS USA_WIND USA_PRES USA_SSHS USA_R34_NE USA_R34_SE USA_R34_SW USA_R34_NW USA_R50_NE USA_R50_SE USA_R50_SW USA_R50_NW USA_R64_NE USA_R64_SE USA_R64_SW USA_R64_NW USA_POCI USA_ROCI USA_RMW USA_EYE TOKYO_LAT TOKYO_LON TOKYO_GRADE TOKYO_WIND TOKYO_PRES TOKYO_R50_DIR TOKYO_R50_LONG TOKYO_R50_SHORT TOKYO_R30_DIR TOKYO_R30_LONG TOKYO_R30_SHORT TOKYO_LAND CMA_LAT CMA_LON CMA_CAT CMA_WIND CMA_PRES HKO_LAT HKO_LON HKO_CAT HKO_WIND HKO_PRES NEWDELHI_LAT NEWDELHI_LON NEWDELHI_GRADE NEWDELHI_WIND NEWDELHI_PRES NEWDELHI_CI NEWDELHI_DP NEWDELHI_POCI REUNION_LAT REUNION_LON REUNION_TYPE REUNION_WIND REUNION_PRES REUNION_TNUM REUNION_CI REUNION_RMW REUNION_R34_NE REUNION_R34_SE REUNION_R34_SW REUNION_R34_NW REUNION_R50_NE REUNION_R50_SE REUNION_R50_SW REUNION_R50_NW REUNION_R64_NE REUNION_R64_SE REUNION_R64_SW REUNION_R64_NW BOM_LAT BOM_LON BOM_TYPE BOM_WIND BOM_PRES BOM_TNUM BOM_CI BOM_RMW BOM_R34_NE BOM_R34_SE BOM_R34_SW BOM_R34_NW BOM_R50_NE BOM_R50_SE BOM_R50_SW BOM_R50_NW BOM_R64_NE BOM_R64_SE BOM_R64_SW BOM_R64_NW BOM_ROCI BOM_POCI BOM_EYE BOM_POS_METHOD BOM_PRES_METHOD NADI_LAT NADI_LON NADI_CAT NADI_WIND NADI_PRES WELLINGTON_LAT WELLINGTON_LON WELLINGTON_WIND WELLINGTON_PRES DS824_LAT DS824_LON DS824_STAGE DS824_WIND DS824_PRES TD9636_LAT TD9636_LON TD9636_STAGE TD9636_WIND TD9636_PRES TD9635_LAT TD9635_LON TD9635_WIND TD9635_PRES TD9635_ROCI NEUMANN_LAT NEUMANN_LON NEUMANN_CLASS NEUMANN_WIND NEUMANN_PRES MLC_LAT MLC_LON MLC_CLASS MLC_WIND MLC_PRES USA_GUST BOM_GUST BOM_GUST_PER REUNION_GUST REUNION_GUST_PER USA_SEAHGT USA_SEARAD_NE USA_SEARAD_SE USA_SEARAD_SW USA_SEARAD_NW STORM_SPEED STORM_DIR
1976092N11140 1976 36 WP MM MARIE 1976-04-01 00:00:00 TS 10.7000 139.500 main 1348 1330 O________OOO__ jtwc_wp WP031976 10.7000 139.500 20 -1 10.7000 139.500 TC 20 10.7000 139.500 1 20 10.7000 139.500 20 1006 300 5 153
1976092N11140 1976 36 WP MM MARIE 1976-04-01 03:00:00 TS 10.4977 139.606 main 1330 1313 P________PPP__ WP031976 10.4875 139.593 22 -1 10.4875 139.593 TC 22 10.5282 139.646 1 21 10.4875 139.593 22 1005 300 4 151
1976092N11140 1976 36 WP MM MARIE 1976-04-01 06:00:00 TS 10.3138 139.718 main 1313 1306 O________OPO__ jtwc_wp WP031976 10.3000 139.700 25 -1 10.3000 139.700 TC 25 10.3551 139.773 1 22 10.3000 139.700 25 1005 300 4 147
1976092N11140 1976 36 WP MM MARIE 1976-04-01 09:00:00 TS 10.1574 139.833 main 1306 1288 P________PPP__ WP031976 10.1500 139.823 25 -1 10.1500 139.823 TC 25 10.1794 139.864 1 23 10.1500 139.823 25 1005 300 4 151
1976092N11140 1976 36 WP MM MARIE 1976-04-01 12:00:00 TS 10.0000 139.900 main 1288 1267 O________OOO__ jtwc_wp WP031976 10.0000 139.900 25 -1 10.0000 139.900 TC 25 10.0000 139.900 1 25 10.0000 139.900 25 1005 300 4 173
1976092N11140 1976 36 WP MM MARIE 1976-04-01 15:00:00 TS 9.80422 139.873 main 1267 1242 P________PPP__ WP031976 9.80000 139.872 25 -1 9.80000 139.872 TC 25 9.81687 139.873 1 26 9.80000 139.872 25 1005 270 4 194
1976092N11140 1976 36 WP MM MARIE 1976-04-01 18:00:00 TS 9.60875 139.802 main 1242 1228 O________OPO__ jtwc_wp WP031976 9.60000 139.800 25 -1 9.60000 139.800 TC 25 9.63500 139.807 1 27 9.60000 139.800 25 1005 240 4 201
1976092N11140 1976 36 WP MM MARIE 1976-04-01 21:00:00 TS 9.44703 139.736 main 1218 1207 P________PPP__ WP031976 9.44250 139.735 27 -1 9.44250 139.735 TC 27 9.46063 139.738 1 28 9.44250 139.735 27 1005 210 3 198
1976092N11140 1976 36 WP MM MARIE 1976-04-02 00:00:00 TS 9.30000 139.700 main 1207 1197 O________OOO__ jtwc_wp WP031976 9.30000 139.700 30 -1 9.30000 139.700 TC 30 9.30000 139.700 1 30 9.30000 139.700 30 1006 180 3 183
1976092N11140 1976 36 WP MM MARIE 1976-04-02 03:00:00 TS 9.14602 139.731 main 1186 1180 P________PPP__ WP031976 9.14250 139.728 27 -1 9.14250 139.728 TC 27 9.15658 139.743 1 28 9.14250 139.728 27 1006 210 3 160
1976092N11140 1976 36 WP MM MARIE 1976-04-02 06:00:00 TS 9.00688 139.805 main 1180 1173 O________OPO__ jtwc_wp WP031976 9.00000 139.800 25 -1 9.00000 139.800 TC 25 9.02752 139.820 1 27 9.00000 139.800 25 1006 240 3 146
1976092N11140 1976 36 WP MM MARIE 1976-04-02 09:00:00 TS 8.89681 139.903 main 1173 1163 P________PPP__ WP031976 8.89251 139.900 25 -1 8.89251 139.900 TC 25 8.90971 139.912 1 26 8.89251 139.900 25 1005 270 2 157
1976092N11140 1976 36 WP MM MARIE 1976-04-02 12:00:00 TS 8.78235 139.906 1002 tokyo main 1163 1153 OO_______OOO__ jtwc_wp WP031976 8.80000 140.000 25 -1 8.50000 138.400 2 1002 0 0 0 8.80000 140.000 TC 25 8.80000 140.000 1 25 8.80000 140.000 25 1005 300 2 0
1976092N11140 1976 36 WP MM MARIE 1976-04-02 15:00:00 TS 8.67611 139.911 main 1153 1142 PP_______PPP__ WP031976 8.70000 140.057 25 -1 8.50758 138.760 2 1000 0 0 8.70000 140.057 TC 25 8.68873 140.045 1 26 8.70000 140.057 25 1002 300 2 168
1976092N11140 1976 36 WP MM MARIE 1976-04-02 18:00:00 TS 8.58105 139.939 998 tokyo main 1142 1137 OO_______OPO__ jtwc_wp WP031976 8.60000 140.100 25 -1 8.50000 139.100 2 998 0 0 0 8.60000 140.100 TC 25 8.58496 140.085 1 27 8.60000 140.100 25 1000 300 2 157
1976092N11140 1976 36 WP MM MARIE 1976-04-02 21:00:00 TS 8.49073 139.993 main 1137 1126 PP_______PPP__ WP031976 8.50000 140.143 27 -1 8.46496 139.408 2 996 0 0 8.50000 140.143 TC 27 8.48872 140.132 1 28 8.50000 140.143 27 997 330 2 141
1976092N11140 1976 36 WP MM MARIE 1976-04-03 00:00:00 TS 8.40000 140.090 994 tokyo main 1131 1125 OOO______OOO__ jtwc_wp WP031976 8.40000 140.200 30 -1 8.40000 139.700 2 994 0 0 0 8.40000 139.900 1 29 990 8.40000 140.200 TC 30 8.40000 140.200 1 30 8.40000 140.200 30 995 360 3 129
1976092N11140 1976 36 WP MM MARIE 1976-04-03 03:00:00 TS 8.29478 140.234 main 1125 1120 PPP______PPP__ WP031976 8.29250 140.285 30 -1 8.29999 140.008 2 992 0 0 8.29257 140.225 1 33 989 8.29250 140.285 TC 30 8.29753 140.312 1 31 8.29250 140.285 30 991 360 4 123
1976092N11140 1976 36 WP MM MARIE 1976-04-03 06:00:00 TS 8.20501 140.399 990 tokyo main 1124 1116 OOOO_____OPO__ jtwc_wp WP031976 8.20000 140.400 30 -1 8.20000 140.300 2 990 0 0 0 8.20000 140.500 2 38 989 8.30000 140.300 TD 25 985 8.20000 140.400 TC 30 8.20504 140.443 1 32 8.20000 140.400 30 987 360 4 115
1976092N11140 1976 36 WP MM MARIE 1976-04-03 09:00:00 TS 8.14078 140.568 main 1119 1119 PPPP_____PPP__ WP031976 8.12751 140.550 32 -1 8.13500 140.580 2 987 0 0 8.13497 140.687 2 38 987 8.25500 140.393 TD 27 985 8.12751 140.550 TC 32 8.13503 140.577 1 33 8.12751 140.550 32 986 360 3 107
1976092N11140 1976 36 WP MM MARIE 1976-04-03 12:00:00 TS 8.11111 140.707 985 tokyo main 1121 1121 OOOO_____OOO__ jtwc_wp WP031976 8.10000 140.700 35 0 8.10000 140.800 9 985 0 0 0 8.10000 140.800 2 38 985 8.20000 140.500 TD 30 985 8.10000 140.700 TC 35 8.10000 140.700 2 35 8.10000 140.700 35 985 360 2 95
1976092N11140 1976 36 WP MM MARIE 1976-04-03 15:00:00 TS 8.11994 140.816 main 1124 1124 PPPP_____PPP__ WP031976 8.13500 140.815 37 0 8.08498 140.930 9 985 0 0 8.09249 140.857 2 38 984 8.13499 140.635 TD 32 985 8.13500 140.815 TC 37 8.12215 140.842 2 36 8.13500 140.815 37 984 360 2 78
1976092N11140 1976 36 WP MM MARIE 1976-04-03 18:00:00 TS 8.15392 140.909 985 tokyo main 1138 1138 OOOO_____OPO__ jtwc_wp WP031976 8.20000 140.900 40 0 8.10000 141.000 9 985 0 0 0 8.10000 140.900 2 38 983 8.10000 140.800 TS 35 985 8.20000 140.900 TC 40 8.17741 140.962 2 37 8.20000 140.900 40 983 360 2 72
1976092N11140 1976 36 WP MM MARIE 1976-04-03 21:00:00 TS 8.18628 141.021 main 1141 1141 PPPP_____PPP__ WP031976 8.23499 140.987 40 0 8.14248 141.095 9 985 0 0 8.08501 141.015 2 38 981 8.12753 141.045 TS 35 982 8.23499 140.987 TC 40 8.24397 141.027 2 38 8.23499 140.987 40 982 330 2 59
1976092N11140 1976 36 WP MM MARIE 1976-04-04 00:00:00 TS 8.24286 141.057 985 tokyo main 1144 1144 OOOO_____OOO__ jtwc_wp WP031976 8.30000 141.000 40 0 8.20000 141.100 9 985 0 0 0 8.10000 141.100 2 38 980 8.20000 141.200 TS 35 980 8.30000 141.000 TC 40 8.30000 141.000 2 40 8.30000 141.000 40 981 300 2 345
1976092N11140 1976 36 WP MM MARIE 1976-04-04 03:00:00 TS 8.37741 140.961 main 1162 1157 PPPP_____PPP__ WP031976 8.47996 140.910 42 0 8.28752 140.938 9 985 0 0 8.23744 141.118 2 38 980 8.32997 141.125 TS 37 980 8.47996 140.910 TC 42 8.34705 140.819 2 42 8.47996 140.910 42 980 300 4 305
1976092N11140 1976 36 WP MM MARIE 1976-04-04 06:00:00 TS 8.45361 140.750 985 tokyo main 1167 1149 OOOO_____OPO__ jtwc_wp WP031976 8.60000 140.700 45 0 8.30000 140.700 9 985 0 0 0 8.30000 141.000 2 38 980 8.40000 140.900 TS 40 980 8.60000 140.700 TC 45 8.37527 140.553 2 45 8.60000 140.700 45 980 300 5 267
1976092N11140 1976 36 WP MM MARIE 1976-04-04 09:00:00 TS 8.35054 140.439 main 1145 1110 PPPP_____PPP__ WP031976 8.51761 140.342 47 0 8.13748 140.507 9 982 0 0 8.08760 140.672 2 43 979 8.31005 140.607 TS 42 980 8.51761 140.342 TC 47 8.36582 140.260 2 47 8.51761 140.342 47 979 300 7 243
1976092N11140 1976 36 WP MM MARIE 1976-04-04 12:00:00 TS 8.14286 140.129 980 tokyo main 1100 1075 OOOO_____OOO__ jtwc_wp WP031976 8.30000 140.000 50 0 7.90000 140.300 9 980 0 0 0 7.80000 140.300 3 48 979 8.10000 140.300 TS 45 980 8.30000 140.000 TC 50 8.30000 140.000 2 50 8.30000 140.000 50 979 300 7 227
1976092N11140 1976 36 WP MM MARIE 1976-04-04 15:00:00 TS 7.88791 139.946 main 1071 1046 PPPP_____PPP__ WP031976 7.99245 139.863 52 0 7.68503 140.035 9 977 0 0 7.62746 140.070 3 48 979 7.79248 140.070 TS 47 977 7.99245 139.863 TC 52 8.13303 139.857 2 52 7.99245 139.863 52 976 330 6 211
1976092N11140 1976 36 WP MM MARIE 1976-04-04 18:00:00 TS 7.64498 139.822 975 tokyo main 1036 1021 OOOO_____OPO__ jtwc_wp WP031976 7.70000 139.800 55 0 7.50000 139.800 9 975 0 0 0 7.50000 139.900 3 48 979 7.50000 139.900 STS 50 975 7.70000 139.800 TC 55 7.91489 139.755 2 55 7.70000 139.800 55 974 360 5 211
1976092N11140 1976 36 WP MM MARIE 1976-04-04 21:00:00 TS 7.50025 139.710 main 1021 1006 PPPP_____PPP__ WP031976 7.56250 139.700 57 0 7.37748 139.678 9 972 0 0 7.38499 139.735 3 53 977 7.36248 139.785 STS 52 975 7.56250 139.700 TC 57 7.68931 139.676 2 57 7.56250 139.700 57 972 360 3 222
1976092N11140 1976 36 WP MM MARIE 1976-04-05 00:00:00 TS 7.41429 139.614 970 tokyo main 1006 991 OOOO_____OOO__ jtwc_wp WP031976 7.50000 139.600 60 0 7.30000 139.600 9 970 0 0 0 7.30000 139.600 3 58 976 7.30000 139.700 STS 55 975 7.50000 139.600 TC 60 7.50000 139.600 2 60 7.50000 139.600 60 971 360 2 231
1976092N11140 1976 36 WP MM MARIE 1976-04-05 03:00:00 TS 7.34673 139.519 main 991 987 PPPP_____PPP__ WP031976 7.44250 139.500 62 0 7.23500 139.500 9 972 0 0 7.23499 139.493 3 63 974 7.23498 139.615 STS 55 975 7.44250 139.500 TC 62 7.39463 139.524 2 61 7.44250 139.500 62 971 390 2 241
1976092N11140 1976 36 WP MM MARIE 1976-04-05 06:00:00 TS 7.30463 139.421 975 tokyo main 987 983 OOOO_____OPO__ jtwc_wp WP031976 7.40000 139.400 65 1 7.20000 139.400 9 975 0 0 0 7.20000 139.400 4 68 973 7.20000 139.500 STS 55 975 7.40000 139.400 TC 65 7.33240 139.445 2 62 7.40000 139.400 65 972 420 2 250
1976092N11140 1976 36 WP MM MARIE 1976-04-05 09:00:00 TS 7.27270 139.316 main 983 978 PPPP_____PPP__ WP031976 7.34998 139.315 65 1 7.18499 139.307 9 975 0 0 7.18499 139.307 4 68 972 7.18502 139.308 STS 55 975 7.34998 139.315 TC 65 7.30398 139.343 2 63 7.34998 139.315 65 973 420 2 258
1976092N11140 1976 36 WP MM MARIE 1976-04-05 12:00:00 TS 7.25714 139.186 975 tokyo main 978 960 OOOO_____OOO__ jtwc_wp WP031976 7.30000 139.200 65 1 7.20000 139.200 9 975 0 0 0 7.20000 139.200 4 68 972 7.20000 139.100 STS 55 975 7.30000 139.200 TC 65 7.30000 139.200 3 65 7.30000 139.200 65 975 420 3 263
1976092N11140 1976 36 WP MM MARIE 1976-04-05 15:00:00 TS 7.23865 139.027 main 960 956 PPPP_____PPP__ WP031976 7.22748 139.030 65 1 7.22748 139.072 9 977 0 0 7.24248 139.072 4 68 972 7.23497 138.957 STS 55 977 7.22748 139.030 TC 65 7.28316 138.997 3 65 7.22748 139.030 65 977 420 4 270
1976092N11140 1976 36 WP MM MARIE 1976-04-05 18:00:00 TS 7.25572 138.822 980 tokyo main 963 955 OOOO_____OPO__ jtwc_wp WP031976 7.20000 138.800 65 1 7.30000 138.900 9 980 0 0 0 7.30000 138.900 4 68 972 7.30000 138.800 STS 55 980 7.20000 138.800 TC 65 7.29004 138.752 3 65 7.20000 138.800 65 980 420 5 281
1976092N11140 1976 36 WP MM MARIE 1976-04-05 21:00:00 TS 7.32635 138.558 main 955 952 PPPP_____PPP__ WP031976 7.26252 138.508 65 1 7.44998 138.680 9 980 0 0 7.32751 138.665 4 68 972 7.39252 138.558 STS 55 980 7.26252 138.508 TC 65 7.32689 138.481 3 65 7.26252 138.508 65 979 420 6 289
1976092N11140 1976 36 WP MM MARIE 1976-04-06 00:00:00 TS 7.44286 138.271 980 tokyo main 955 955 OOOO_____OOO__ jtwc_wp WP031976 7.40000 138.200 65 1 7.60000 138.400 9 980 0 0 0 7.40000 138.400 4 68 972 7.50000 138.300 STS 55 980 7.40000 138.200 TC 65 7.40000 138.200 4 65 7.40000 138.200 65 978 420 6 297
1976092N11140 1976 36 WP MM MARIE 1976-04-06 03:00:00 TS 7.59502 138.015 main 967 964 PPPP_____PPP__ WP031976 7.59996 137.950 65 1 7.65004 138.050 9 977 0 0 7.59244 138.173 4 68 972 7.59246 138.107 STS 57 980 7.59996 137.950 TC 65 7.53030 137.928 4 65 7.59996 137.950 65 978 450 6 301
1976092N11140 1976 36 WP MM MARIE 1976-04-06 06:00:00 TS 7.75607 137.750 975 tokyo main 983 978 OOOO_____OPO__ jtwc_wp WP031976 7.80000 137.700 65 1 7.70000 137.700 9 975 0 0 0 7.80000 137.900 4 68 972 7.70000 137.900 STS 60 980 7.80000 137.700 TC 65 7.69249 137.650 4 65 7.80000 137.700 65 978 480 6 298
1976092N11140 1976 36 WP MM MARIE 1976-04-06 09:00:00 TS 7.89048 137.455 main 986 981 PPPP_____PPP__ WP031976 7.91499 137.407 65 1 7.85741 137.458 9 975 0 0 7.92256 137.508 4 68 972 7.84999 137.623 STS 60 980 7.91499 137.407 TC 65 7.85843 137.372 4 65 7.91499 137.407 65 977 480 7 292
1976092N11140 1976 36 WP MM MARIE 1976-04-06 12:00:00 TS 8.00000 137.143 975 tokyo main 989 987 OOOO_____OOO__ jtwc_wp WP031976 8.00000 137.100 65 1 8.00000 137.200 9 975 0 0 0 8.00000 137.100 4 68 972 8.00000 137.300 STS 60 980 8.00000 137.100 TC 65 8.00000 137.100 4 65 8.00000 137.100 65 976 480 7 287
1976092N11140 1976 36 WP MM MARIE 1976-04-06 15:00:00 TS 8.08576 136.814 main 995 991 PPPP_____PPP__ WP031976 8.11501 136.785 65 1 8.00010 136.785 9 972 0 0 8.05747 136.770 4 68 972 8.11504 136.935 STS 60 977 8.11501 136.785 TC 65 8.08271 136.851 4 65 8.11501 136.785 65 974 510 6 283
1976092N11140 1976 36 WP MM MARIE 1976-04-06 18:00:00 TS 8.14819 136.515 970 tokyo main 991 991 OOOO_____OPO__ jtwc_wp WP031976 8.20000 136.500 65 1 8.00000 136.400 9 970 0 0 0 8.10000 136.500 4 68 972 8.20000 136.600 STS 60 975 8.20000 136.500 TC 65 8.13735 136.607 4 65 8.20000 136.500 65 973 540 5 282
1976092N11140 1976 36 WP MM MARIE 1976-04-06 21:00:00 TS 8.19328 136.306 main 1000 998 PPPP_____PPP__ WP031976 8.20745 136.292 65 1 8.14992 136.220 9 970 0 0 8.14995 136.292 4 68 971 8.25742 136.392 STS 62 975 8.20745 136.292 TC 65 8.17332 136.360 4 65 8.20745 136.292 65 974 540 4 281
1976092N11140 1976 36 WP MM MARIE 1976-04-07 00:00:00 TS 8.22857 136.114 970 tokyo main 998 998 OOOO_____OOO__ jtwc_wp WP031976 8.20000 136.100 65 1 8.30000 136.100 9 970 0 0 0 8.20000 136.100 4 68 970 8.30000 136.200 T 65 975 8.20000 136.100 TC 65 8.20000 136.100 4 65 8.20000 136.100 65 975 540 4 281
1976092N11140 1976 36 WP MM MARIE 1976-04-07 03:00:00 TS 8.27254 135.884 main 1009 994 PPPP_____PPP__ WP031976 8.24997 135.873 65 1 8.31494 135.937 9 972 0 0 8.25746 135.873 4 68 970 8.35747 135.930 T 65 975 8.24997 135.873 TC 65 8.22801 135.831 4 66 8.24997 135.873 65 975 570 5 279
1976092N11140 1976 36 WP MM MARIE 1976-04-07 06:00:00 TS 8.30712 135.606 975 tokyo main 994 961 OOOO_____OPO__ jtwc_wp WP031976 8.30000 135.600 65 1 8.30000 135.700 9 975 0 0 0 8.30000 135.600 4 68 970 8.40000 135.600 T 65 975 8.30000 135.600 TC 65 8.24982 135.545 4 67 8.30000 135.600 65 975 600 6 275
1976092N11140 1976 36 WP MM MARIE 1976-04-07 09:00:00 TS 8.32277 135.259 main 961 917 PPPP_____PPP__ WP031976 8.30750 135.265 67 1 8.35006 135.323 9 972 0 0 8.30750 135.265 4 68 967 8.40756 135.192 T 65 972 8.30750 135.265 TC 67 8.27173 135.237 4 68 8.30750 135.265 67 974 630 7 272
1976092N11140 1976 36 WP MM MARIE 1976-04-07 12:00:00 TS 8.32857 134.886 970 tokyo main 917 884 OOOO_____OOO__ jtwc_wp WP031976 8.30000 134.900 70 1 8.40000 134.900 9 970 0 0 0 8.30000 134.900 4 68 965 8.40000 134.800 T 65 970 8.30000 134.900 TC 70 8.30000 134.900 4 70 8.30000 134.900 70 974 660 7 270
1976092N11140 1976 36 WP MM MARIE 1976-04-07 15:00:00 TS 8.32490 134.553 main 884 840 PPPP_____PPP__ WP031976 8.28493 134.565 72 1 8.39240 134.557 9 967 0 0 8.29247 134.550 4 72 965 8.39988 134.550 T 67 967 8.28493 134.565 TC 72 8.33478 134.517 4 72 8.28493 134.565 72 969 690 7 271
1976092N11140 1976 36 WP MM MARIE 1976-04-07 18:00:00 TS 8.33966 134.201 965 tokyo main 840 797 OOOO_____OPO__ jtwc_wp WP031976 8.30000 134.200 75 1 8.40000 134.200 9 965 0 0 0 8.30000 134.200 4 77 965 8.40000 134.300 T 70 965 8.30000 134.200 TC 75 8.37763 134.107 4 75 8.30000 134.200 75 965 720 8 275
1976092N11140 1976 36 WP MM MARIE 1976-04-07 21:00:00 TS 8.39775 133.784 main 797 754 PPPP_____PPP__ WP031976 8.38504 133.750 77 1 8.49252 133.758 9 965 0 0 8.32745 133.857 4 77 963 8.37749 133.930 T 70 965 8.38504 133.750 TC 77 8.43165 133.695 4 77 8.38504 133.750 77 964 720 8 280
1976092N11140 1976 36 WP MM MARIE 1976-04-08 00:00:00 TS 8.48571 133.357 965 tokyo main 754 712 OOOO_____OOO__ jtwc_wp WP031976 8.50000 133.300 80 1 8.60000 133.300 9 965 0 0 0 8.40000 133.500 4 77 962 8.40000 133.500 T 70 965 8.50000 133.300 TC 80 8.50000 133.300 4 80 8.50000 133.300 80 963 720 8 283
1976092N11140 1976 36 WP MM MARIE 1976-04-08 03:00:00 TS 8.58525 132.956 main 712 670 PPPP_____PPP__ WP031976 8.59994 132.927 80 1 8.65001 132.862 9 962 0 0 8.54252 133.093 4 77 961 8.53508 133.020 T 70 962 8.59994 132.927 TC 80 8.56930 132.933 4 81 8.59994 132.927 80 961 690 8 285
1976092N11140 1976 36 WP MM MARIE 1976-04-08 06:00:00 TS 8.69356 132.599 960 tokyo main 670 639 OOOO_____OPO__ jtwc_wp WP031976 8.70000 132.600 80 1 8.70000 132.500 9 960 0 0 0 8.70000 132.700 4 77 960 8.70000 132.600 T 70 960 8.70000 132.600 TC 80 8.65493 132.590 4 82 8.70000 132.600 80 960 660 7 287
1976092N11140 1976 36 WP MM MARIE 1976-04-08 09:00:00 TS 8.78611 132.309 main 639 620 PPPP_____PPP__ WP031976 8.79247 132.285 82 1 8.77742 132.270 9 957 0 0 8.79244 132.385 4 77 959 8.79238 132.377 T 72 957 8.79247 132.285 TC 82 8.76309 132.277 4 83 8.79247 132.285 82 958 630 6 291
1976092N11140 1976 36 WP MM MARIE 1976-04-08 12:00:00 TS 8.90000 132.057 955 tokyo main 620 590 OOOO_____OOO__ jtwc_wp WP031976 8.90000 132.000 85 2 8.90000 132.100 9 955 0 0 0 8.90000 132.100 4 77 958 8.90000 132.200 T 75 955 8.90000 132.000 TC 85 8.90000 132.000 4 85 8.90000 132.000 85 957 600 6 297
1976092N11140 1976 36 WP MM MARIE 1976-04-08 15:00:00 TS 9.05168 131.791 main 593 575 PPPP_____PPP__ WP031976 9.02749 131.727 85 2 9.07748 131.907 9 955 0 0 9.07001 131.785 4 77 956 9.08504 131.900 T 75 955 9.02749 131.727 TC 85 9.04675 131.760 4 86 9.02749 131.727 85 956 570 6 305
1976092N11140 1976 36 WP MM MARIE 1976-04-08 18:00:00 TS 9.24641 131.551 955 tokyo main 575 561 OOOO_____OPO__ jtwc_wp WP031976 9.20000 131.500 85 2 9.30000 131.700 9 955 0 0 0 9.30000 131.500 4 77 955 9.30000 131.600 T 75 955 9.20000 131.500 TC 85 9.22485 131.555 4 87 9.20000 131.500 85 955 540 6 314
1976092N11140 1976 36 WP MM MARIE 1976-04-08 21:00:00 TS 9.47220 131.352 main 565 545 PPPP_____PPP__ WP031976 9.41998 131.327 87 2 9.53503 131.443 9 952 0 0 9.58498 131.270 4 77 952 9.48493 131.400 T 77 952 9.41998 131.327 TC 87 9.44053 131.372 4 88 9.41998 131.327 87 953 510 6 324
1976092N11140 1976 36 WP MM MARIE 1976-04-09 00:00:00 TS 9.74286 131.186 950 tokyo main 547 538 OOOO_____OOO__ jtwc_wp WP031976 9.70000 131.200 90 2 9.80000 131.200 9 950 0 0 0 9.90000 131.100 4 77 950 9.70000 131.200 T 80 950 9.70000 131.200 TC 90 9.70000 131.200 4 90 9.70000 131.200 90 952 480 7 333
1976092N11140 1976 36 WP MM MARIE 1976-04-09 03:00:00 TS 10.0551 131.051 main 546 530 PPPP_____PPP__ WP031976 10.0350 131.115 92 2 10.0699 131.057 9 950 0 0 10.2074 131.030 4 77 947 9.99256 130.893 T 82 947 10.0350 131.115 TC 92 10.0108 131.034 4 92 10.0350 131.115 92 948 510 7 336
1976092N11140 1976 36 WP MM MARIE 1976-04-09 06:00:00 TS 10.3946 130.896 950 tokyo main 532 517 OOOO_____OPO__ jtwc_wp WP031976 10.4000 131.000 95 2 10.4000 130.900 9 950 0 0 0 10.5000 130.900 4 77 945 10.3000 130.600 ST 85 945 10.4000 131.000 TC 95 10.3623 130.872 4 95 10.4000 131.000 95 944 540 8 330
1976092N11140 1976 36 WP MM MARIE 1976-04-09 09:00:00 TS 10.7322 130.661 main 521 502 PPPP_____PPP__ WP031976 10.7575 130.780 97 3 10.8651 130.608 9 947 0 0 10.7352 130.523 4 77 942 10.5199 130.457 ST 87 942 10.7575 130.780 TC 97 10.7327 130.699 4 97 10.7575 130.780 97 942 570 8 323
1976092N11140 1976 36 WP MM MARIE 1976-04-09 12:00:00 TS 11.0714 130.386 945 tokyo main 502 470 OOOO_____OOO__ jtwc_wp WP031976 11.1000 130.500 100 3 11.3000 130.300 9 945 0 0 0 11.0000 130.100 4 77 940 10.8000 130.300 ST 90 940 11.1000 130.500 TC 100 11.1000 130.500 4 100 11.1000 130.500 100 940 600 9 320
1976092N11140 1976 36 WP MM MARIE 1976-04-09 15:00:00 TS 11.4019 130.095 main 471 443 PPPP_____PPP__ WP031976 11.4000 130.200 100 3 11.5149 130.092 9 942 0 0 11.3775 129.798 4 82 939 11.2926 129.943 ST 90 940 11.4000 130.200 TC 100 11.4283 130.234 4 101 11.4000 130.200 100 938 600 9 320
1976092N11140 1976 36 WP MM MARIE 1976-04-09 18:00:00 TS 11.7357 129.820 940 tokyo main 443 429 OOOO_____OPO__ jtwc_wp WP031976 11.7000 129.900 100 3 11.7000 129.900 9 940 0 0 0 11.8000 129.600 5 87 938 11.8000 129.600 ST 90 940 11.7000 129.900 TC 100 11.7502 129.943 4 102 11.7000 129.900 100 937 600 8 324
1976092N11140 1976 36 WP MM MARIE 1976-04-09 21:00:00 TS 12.0817 129.598 main 432 422 PPPP_____PPP__ WP031976 12.0425 129.627 102 3 12.0350 129.643 9 940 0 0 12.2224 129.542 5 87 936 12.1149 129.462 ST 92 937 12.0425 129.627 TC 102 12.0720 129.655 4 103 12.0425 129.627 102 936 570 8 330
1976092N11140 1976 36 WP MM MARIE 1976-04-10 00:00:00 TS 12.4286 129.414 940 tokyo main 422 415 OOOO_____OOO__ jtwc_wp WP031976 12.4000 129.400 105 3 12.4000 129.400 9 940 0 0 0 12.6000 129.500 5 87 935 12.4000 129.400 ST 95 935 12.4000 129.400 TC 105 12.4000 129.400 4 105 12.4000 129.400 105 936 540 8 334
1976092N11140 1976 36 WP MM MARIE 1976-04-10 03:00:00 TS 12.7675 129.248 main 407 401 PPPP_____PPP__ WP031976 12.7500 129.235 105 3 12.7150 129.227 9 937 0 0 12.8575 129.308 5 92 933 12.8075 129.307 ST 95 932 12.7500 129.235 TC 105 12.7427 129.190 4 106 12.7500 129.235 105 934 540 7 336
1976092N11140 1976 36 WP MM MARIE 1976-04-10 06:00:00 TS 13.0989 129.103 935 tokyo main 403 396 OOOO_____OPO__ jtwc_wp WP031976 13.1000 129.100 105 3 13.0000 129.100 9 935 0 0 0 13.1000 129.100 5 97 932 13.2000 129.200 ST 95 930 13.1000 129.100 TC 105 13.0924 129.018 4 107 13.1000 129.100 105 932 540 7 337
1976092N11140 1976 36 WP MM MARIE 1976-04-10 09:00:00 TS 13.4198 128.958 main 402 395 PPPP_____PPP__ WP031976 13.4575 128.935 107 3 13.2275 128.992 9 932 0 0 13.4350 128.977 5 97 931 13.4575 129.042 ST 97 930 13.4575 128.935 TC 107 13.4459 128.887 4 108 13.4575 128.935 107 931 570 7 339
1976092N11140 1976 36 WP MM MARIE 1976-04-10 12:00:00 TS 13.7429 128.843 930 tokyo main 395 395 OOOO_____OOO__ jtwc_wp WP031976 13.8000 128.800 110 3 13.5000 128.900 9 930 0 0 0 13.8000 128.900 5 97 931 13.7000 128.900 SuperT 100 930 13.8000 128.800 TC 110 13.8000 128.800 4 110 13.8000 128.800 110 930 600 7 344
1976092N11140 1976 36 WP MM MARIE 1976-04-10 15:00:00 TS 14.0754 128.766 main 416 412 PPPP_____PPP__ WP031976 14.0925 128.720 112 3 13.9350 128.793 9 930 0 0 14.1500 128.842 5 97 930 14.0275 128.835 SuperT 100 930 14.0925 128.720 TC 112 14.1377 128.733 4 111 14.0925 128.720 112 929 600 7 350
1976092N11140 1976 36 WP MM MARIE 1976-04-10 18:00:00 TS 14.4253 128.730 930 tokyo main 425 425 OOOO_____OPO__ jtwc_wp WP031976 14.4000 128.700 115 4 14.4000 128.700 9 930 0 0 0 14.5000 128.800 5 97 930 14.4000 128.800 SuperT 100 930 14.4000 128.700 TC 115 14.4774 128.710 4 112 14.4000 128.700 115 929 600 7 356
1976092N11140 1976 36 WP MM MARIE 1976-04-10 21:00:00 TS 14.7965 128.711 main 452 452 PPPP_____PPP__ WP031976 14.7850 128.727 115 4 14.7575 128.613 9 930 0 0 14.8350 128.720 5 97 930 14.8000 128.728 SuperT 100 930 14.7850 128.727 TC 115 14.8284 128.733 4 113 14.7850 128.727 115 930 570 8 0
1976092N11140 1976 36 WP MM MARIE 1976-04-11 00:00:00 TS 15.1857 128.743 930 tokyo main 482 482 OOOO_____OOO__ jtwc_wp WP031976 15.2000 128.800 115 4 15.1000 128.600 9 930 0 0 0 15.2000 128.700 5 97 930 15.2000 128.700 SuperT 100 930 15.2000 128.800 TC 115 15.2000 128.800 4 115 15.2000 128.800 115 931 540 8 8
1976092N11140 1976 36 WP MM MARIE 1976-04-11 03:00:00 TS 15.5796 128.825 main 510 510 PPPP_____PPP__ WP031976 15.5925 128.878 115 4 15.4925 128.698 9 930 0 0 15.6425 128.820 5 97 930 15.5499 128.748 SuperT 100 932 15.5925 128.878 TC 115 15.5952 128.879 4 115 15.5925 128.878 115 931 510 8 15
1976092N11140 1976 36 WP MM MARIE 1976-04-11 06:00:00 TS 15.9875 128.972 930 tokyo main 547 547 OOOO_____OPO__ jtwc_wp WP031976 16.0000 129.000 115 4 15.9000 128.900 9 930 0 0 0 16.1000 129.000 5 97 930 15.9000 128.900 SuperT 100 935 16.0000 129.000 TC 115 16.0123 129.003 4 115 16.0000 129.000 115 932 480 9 22
1976092N11140 1976 36 WP MM MARIE 1976-04-11 09:00:00 TS 16.3990 129.166 main 586 586 PPPP_____PPP__ WP031976 16.4350 129.170 115 4 16.2776 129.185 9 930 0 0 16.4849 129.113 5 97 931 16.2776 129.177 SuperT 100 935 16.4350 129.170 TC 115 16.4482 129.176 4 115 16.4350 129.170 115 931 450 10 26
1976092N11140 1976 36 WP MM MARIE 1976-04-11 12:00:00 TS 16.8429 129.414 930 tokyo main 626 626 OOOO_____OOO__ jtwc_wp WP031976 16.9000 129.400 115 4 16.7000 129.500 9 930 0 0 0 16.9000 129.300 5 97 933 16.7000 129.500 SuperT 100 935 16.9000 129.400 TC 115 16.9000 129.400 4 115 16.9000 129.400 115 930 420 11 28
1976092N11140 1976 36 WP MM MARIE 1976-04-11 15:00:00 TS 17.3433 129.697 main 683 683 PPPP_____PPP__ WP031976 17.4000 129.678 112 3 17.2424 129.758 9 932 0 0 17.4277 129.677 5 97 934 17.1849 129.750 SuperT 97 937 17.4000 129.678 TC 112 17.3484 129.659 4 112 17.4000 129.678 112 932 420 12 29
1976092N11140 1976 36 WP MM MARIE 1976-04-11 18:00:00 TS 17.8589 130.010 935 tokyo main 747 747 OOOO_____OPO__ jtwc_wp WP031976 17.9000 130.000 110 3 17.8000 130.000 9 935 0 0 0 18.0000 130.100 5 97 935 17.7000 130.000 ST 95 940 17.9000 130.000 TC 110 17.8124 129.968 4 110 17.9000 130.000 110 935 420 12 31
1976092N11140 1976 36 WP MM MARIE 1976-04-11 21:00:00 TS 18.3317 130.321 main 799 799 PPPP_____PPP__ WP031976 18.3499 130.335 107 3 18.2424 130.235 9 935 0 0 18.5498 130.400 5 97 935 18.1850 130.285 ST 92 942 18.3499 130.335 TC 107 18.2952 130.319 4 107 18.3499 130.335 107 940 420 11 33
1976092N11140 1976 36 WP MM MARIE 1976-04-12 00:00:00 TS 18.8143 130.657 935 tokyo main 867 867 OOOO_____OOO__ jtwc_wp WP031976 18.8000 130.700 105 3 18.7000 130.500 9 935 0 0 0 19.1000 130.700 5 97 935 18.7000 130.600 ST 90 945 18.8000 130.700 TC 105 18.8000 130.700 4 105 18.8000 130.700 105 945 420 12 33
1976092N11140 1976 36 WP MM MARIE 1976-04-12 03:00:00 TS 19.3438 131.025 main 920 920 PPPP_____PPP__ WP031976 19.2774 131.085 102 3 19.2849 130.813 9 937 0 0 19.6575 131.092 5 92 937 19.2999 130.928 ST 90 947 19.2774 131.085 TC 102 19.3324 131.088 4 101 19.2774 131.085 102 950 420 13 34
1976092N11140 1976 36 WP MM MARIE 1976-04-12 06:00:00 TS 19.8978 131.429 940 tokyo main 970 970 OOOO_____OPO__ jtwc_wp WP031976 19.8000 131.500 100 3 19.9000 131.200 9 940 0 0 0 20.2000 131.500 5 87 940 19.9000 131.300 ST 90 950 19.8000 131.500 TC 100 19.8848 131.506 4 97 19.8000 131.500 100 955 420 14 35
1976092N11140 1976 36 WP MM MARIE 1976-04-12 09:00:00 TS 20.4574 131.862 main 1033 1033 PPPP_____PPP__ WP031976 20.3924 131.943 95 2 20.4651 131.685 9 947 0 0 20.7073 131.843 5 82 945 20.4075 131.735 ST 85 955 20.3924 131.943 TC 95 20.4448 131.945 4 93 20.3924 131.943 95 958 420 14 37
1976092N11140 1976 36 WP MM MARIE 1976-04-12 12:00:00 TS 21.0143 132.314 955 tokyo main 1086 1079 OOOO_____OOO__ jtwc_wp WP031976 21.0000 132.400 90 2 21.0000 132.200 9 955 0 0 0 21.2000 132.200 4 77 950 20.9000 132.200 T 80 960 21.0000 132.400 TC 90 21.0000 132.400 4 90 21.0000 132.400 90 962 420 14 37
1976092N11140 1976 36 WP MM MARIE 1976-04-12 15:00:00 TS 21.5559 132.760 main 1070 1024 PPPP_____PPP__ WP031976 21.5648 132.843 85 2 21.5073 132.658 9 957 0 0 21.7000 132.635 4 77 950 21.4498 132.643 T 75 962 21.5648 132.843 TC 85 21.5400 132.857 4 85 21.5648 132.843 85 964 390 14 38
1976092N11140 1976 36 WP MM MARIE 1976-04-12 18:00:00 TS 22.0817 133.218 960 tokyo main 1024 984 OOOO_____OPO__ jtwc_wp WP031976 22.1000 133.300 80 1 22.0000 133.100 9 960 0 0 0 22.2000 133.100 4 77 950 22.0000 133.100 T 70 965 22.1000 133.300 TC 80 22.0720 133.329 4 80 22.1000 133.300 80 966 360 14 40
1976092N11140 1976 36 WP MM MARIE 1976-04-12 21:00:00 TS 22.5921 133.695 main 984 947 PPPP_____PPP__ WP031976 22.6149 133.793 75 1 22.4924 133.558 9 965 0 0 22.6923 133.543 4 72 950 22.5223 133.578 T 67 967 22.6149 133.793 TC 75 22.5931 133.811 4 75 22.6149 133.793 75 968 360 13 42
1976092N11140 1976 36 WP MM MARIE 1976-04-13 00:00:00 TS 23.0857 134.186 970 tokyo main 947 921 OOOO_____OOO__ jtwc_wp WP031976 23.1000 134.300 70 1 23.0000 134.000 9 970 0 0 0 23.2000 134.000 4 68 950 23.0000 134.100 T 65 970 23.1000 134.300 TC 70 23.1000 134.300 4 70 23.1000 134.300 70 970 360 13 43
1976092N11140 1976 36 WP MM MARIE 1976-04-13 03:00:00 TS 23.5510 134.675 main 915 893 PPPP_____PPP__ WP031976 23.5498 134.801 65 1 23.5423 134.408 9 970 0 0 23.7274 134.493 4 63 955 23.4074 134.686 T 60 972 23.5498 134.801 TC 65 23.5306 134.737 4 65 23.5498 134.801 65 971 360 13 44
1976092N11140 1976 36 WP MM MARIE 1976-04-13 06:00:00 TS 24.0224 135.170 970 tokyo main 898 870 OOOO_____OPO__ jtwc_wp WP031976 24.0000 135.300 60 0 24.1000 134.800 9 970 0 0 0 24.3000 135.000 3 58 960 23.8000 135.300 STS 55 975 24.0000 135.300 TC 60 23.9570 135.189 4 60 24.0000 135.300 60 972 360 13 43
1976092N11140 1976 36 WP MM MARIE 1976-04-13 09:00:00 TS 24.5074 135.646 main 870 849 PPPP_____PPP__ WP031976 24.4392 135.749 55 0 24.6346 135.171 9 972 0 0 24.9348 135.500 3 58 965 24.2349 135.908 STS 50 977 24.4392 135.749 TC 55 24.4300 135.695 4 55 24.4392 135.749 55 973 330 14 41
1976092N11140 1976 36 WP MM MARIE 1976-04-13 12:00:00 TS 25.0714 136.186 975 tokyo main 845 825 OOOO_____OOO__ jtwc_wp WP031976 25.0000 136.300 50 0 25.2000 135.600 9 975 0 0 0 25.6000 136.000 3 58 970 24.7000 136.500 TS 45 980 25.0000 136.300 TC 50 25.0000 136.300 2 50 25.0000 136.300 50 975 300 17 41
1976092N11140 1976 36 WP MM MARIE 1976-04-13 15:00:00 TS 25.7689 136.868 main 823 787 PPPP_____PPP__ WP031976 25.8052 137.089 45 0 25.8201 136.170 9 977 0 0 26.2572 136.493 3 53 972 25.1999 137.073 TS 40 982 25.8052 137.089 TC 45 25.6896 137.071 2 45 25.8052 137.089 45 977 300 20 41
1976092N11140 1976 36 WP MM MARIE 1976-04-13 18:00:00 TS 26.5563 137.622 980 tokyo main 778 721 OOOO_____OPO__ jtwc_wp WP031976 26.7000 138.000 40 0 26.5000 136.800 9 980 0 0 0 26.9000 137.000 3 48 975 25.7000 137.600 TS 35 985 26.7000 138.000 TC 40 26.4800 137.946 2 40 26.7000 138.000 40 979 300 21 41
1976092N11140 1976 36 WP MM MARIE 1976-04-13 21:00:00 TS 27.3048 138.380 main 724 669 PPPP_____PPP__ WP031976 27.4701 138.924 35 0 27.1811 137.329 9 982 0 0 27.4536 137.463 3 48 980 26.1627 138.067 TS 35 985 27.4701 138.924 TC 35 27.3550 138.873 2 35 27.4701 138.924 35 982 300 21 41
1976092N11140 1976 36 WP MM MARIE 1976-04-14 00:00:00 TS 28.1520 139.188 985 tokyo main 664 617 OOOO_____OOO__ jtwc_wp WP031976 28.3000 139.800 30 -1 28.0000 138.000 9 985 0 0 0 28.1000 138.100 3 48 985 26.6000 138.500 TS 35 985 28.3000 139.800 TC 30 28.3000 139.800 1 30 28.3000 139.800 30 985 300 24 37
1976092N11140 1976 36 WP MM MARIE 1976-04-14 03:00:00 TS 29.2096 140.028 main 612 525 PPP______PPP__ WP031976 29.3109 140.488 30 -1 29.0254 139.011 9 985 0 0 28.9901 139.088 3 48 985 TS 29.3109 140.488 TC 30 29.3093 140.606 1 30 29.3109 140.488 30 986 300 26 35
1976092N11140 1976 36 WP MM MARIE 1976-04-14 06:00:00 TS 30.2964 140.919 985 tokyo main 518 438 OOO______OPO__ jtwc_wp WP031976 30.4000 141.200 30 -1 30.2000 140.200 9 985 0 0 0 30.0000 140.300 3 48 985 30.4000 141.200 TC 30 30.3783 141.411 1 30 30.4000 141.200 30 988 300 27 37
1976092N11140 1976 36 WP MM MARIE 1976-04-14 09:00:00 TS 31.3994 141.924 main 432 393 PPP______PPP__ WP031976 31.5017 142.118 30 -1 31.4410 141.358 9 987 0 0 30.9921 141.572 3 43 987 31.5017 142.118 TC 30 31.4584 142.261 1 30 31.5017 142.118 30 989 300 28 40
1976092N11140 1976 36 WP MM MARIE 1976-04-14 12:00:00 TS 32.4500 143.050 990 tokyo main 390 384 OOO______OOO__ jtwc_wp WP031976 32.5000 143.200 30 -1 32.7000 142.600 9 990 0 0 0 32.0000 142.900 2 38 990 32.5000 143.200 TC 30 32.5000 143.200 1 30 32.5000 143.200 30 990 300 28 46
1976092N11140 1976 36 WP MM MARIE 1976-04-14 15:00:00 TS 33.3257 144.274 main 410 402 PPP______PPP__ WP031976 33.2002 144.432 35 0 33.9622 143.983 9 990 0 0 32.9989 144.210 2 38 990 33.2002 144.432 TC 35 33.3926 144.153 1 33 33.2002 144.432 35 990 300 27 51
1976092N11140 1976 36 WP MM MARIE 1976-04-14 18:00:00 MX 34.1573 145.536 990 tokyo main 450 450 OOO______OPO__ jtwc_wp WP031976 33.9000 145.700 40 0 35.0000 145.400 9 990 0 0 0 34.0000 145.500 9 38 990 33.9000 145.700 TC 40 34.2437 145.218 1 37 33.9000 145.700 40 990 300 26 49
1976092N11140 1976 36 WP MM MARIE 1976-04-14 21:00:00 MX 35.0444 146.652 main 530 528 PPP______PPP__ WP031976 34.8976 146.708 42 0 35.5166 146.624 9 990 0 0 34.9585 146.691 9 38 990 34.8976 146.708 TC 42 35.0987 146.473 1 41 34.8976 146.708 42 990 300 27 48
1976092N11140 1976 36 WP MM MARIE 1976-04-15 00:00:00 MX 36.0000 148.000 990 tokyo main 628 628 OOO______OOO__ jtwc_wp WP031976 36.0000 148.000 45 0 36.0000 148.000 6 990 0 0 0 36.0000 148.000 9 38 990 36.0000 148.000 TC 45 36.0000 148.000 2 45 36.0000 148.000 45 990 300 33 53
1976092N11140 1976 36 WP MM MARIE 1976-04-15 03:00:00 MX 37.0356 149.932 main 733 733 PPP______PPP__ WP031976 37.0113 150.086 42 0 36.9226 149.821 6 991 0 0 37.2125 149.661 9 33 991 37.0113 150.086 TC 42 37.0448 149.855 2 42 37.0113 150.086 42 990 300 39 58
1976092N11140 1976 36 WP MM MARIE 1976-04-15 06:00:00 MX 38.1015 152.170 992 tokyo main 799 797 OOO______OPO__ jtwc_wp WP031976 38.0000 152.500 40 0 38.0000 152.000 6 992 0 0 0 38.5000 151.500 9 29 992 38.0000 152.500 TC 40 38.1088 152.019 2 40 38.0000 152.500 40 991 300 41 58
1976092N11140 1976 36 WP MM MARIE 1976-04-15 09:00:00 MX 39.1883 154.352 main 808 801 PPP______PPP__ WP031976 39.0659 154.676 37 0 39.0690 154.349 6 992 0 0 39.7461 153.306 9 992 39.0659 154.676 TC 37 39.1172 154.426 2 37 39.0659 154.676 37 991 300 41 60
1976092N11140 1976 36 WP MM MARIE 1976-04-15 12:00:00 MX 40.1667 156.700 992 tokyo main 825 825 OOO______OOO__ jtwc_wp WP031976 40.0000 157.000 35 0 40.0000 157.000 6 992 0 0 0 41.0000 155.200 9 992 40.0000 157.000 TC 35 40.0000 157.000 2 35 40.0000 157.000 35 992 300 42 66
1976092N11140 1976 36 WP MM MARIE 1976-04-15 15:00:00 MX 40.8534 159.352 main 924 924 PPP______PPP__ WP031976 40.5733 159.686 35 0 40.5779 160.010 6 993 0 0 42.2505 157.311 9 992 40.5733 159.686 TC 35 40.5720 159.733 2 36 40.5733 159.686 35 993 300 43 74
1976092N11140 1976 36 WP MM MARIE 1976-04-15 18:00:00 MX 41.3287 162.194 994 tokyo main 1083 1083 OOO______OPO__ jtwc_wp WP031976 41.0000 162.500 35 0 41.0000 163.000 6 994 0 0 0 43.5000 159.400 9 992 41.0000 162.500 TC 35 41.0150 162.567 2 37 41.0000 162.500 35 994 300 43 78
1976092N11140 1976 36 WP MM MARIE 1976-04-15 21:00:00 MX 41.7493 165.014 main 1174 1173 PPP______PPP__ WP031976 41.4237 165.335 37 0 41.5267 165.575 6 995 0 0 44.7522 161.260 9 992 41.4237 165.335 TC 37 41.4473 165.363 2 38 41.4237 165.335 37 995 300 42 78
1976092N11140 1976 36 WP MM MARIE 1976-04-16 00:00:00 MX 42.1905 167.762 996 tokyo main 1270 1270 OOO______OOO__ jtwc_wp WP031976 42.0000 168.000 40 0 42.0000 168.000 6 996 0 0 0 46.0000 163.000 9 992 42.0000 168.000 TC 40 42.0000 168.000 2 40 42.0000 168.000 40 996 300 41 76
1976092N11140 1976 36 WP MM MARIE 1976-04-16 03:00:00 MX 42.7317 170.374 main 1361 1357 PP_______PPP__ WP031976 42.9161 170.326 37 0 42.1302 170.489 6 996 0 0 9 42.9161 170.326 TC 37 42.7799 170.405 2 38 42.9161 170.326 37 996 300 38 69
1976092N11140 1976 36 WP MM MARIE 1976-04-16 06:00:00 MX 43.5794 172.653 996 tokyo main 1400 1400 OO_______OPO__ jtwc_wp WP031976 44.0000 172.500 35 0 42.5000 173.000 6 996 0 0 0 44.0000 172.500 TC 35 43.7566 172.647 2 37 44.0000 172.500 35 996 300 39 62
1976092N11140 1976 36 WP MM MARIE 1976-04-16 09:00:00 MX 44.5419 175.105 main 1446 1277 PP_______PPP__ WP031976 45.0360 174.712 35 0 43.6433 175.838 6 996 0 0 45.0360 174.712 TC 35 44.8570 174.818 2 36 45.0360 174.712 35 996 300 41 61
1976092N11140 1976 36 WP MM MARIE 1976-04-16 12:00:00 MX 45.5714 177.643 996 tokyo main 1264 1080 OO_______OOO__ jtwc_wp WP031976 46.0000 177.000 35 0 45.0000 178.500 6 996 0 0 0 46.0000 177.000 TC 35 46.0000 177.000 2 35 46.0000 177.000 35 996 300 41 68
1976092N11140 1976 36 EP CP MARIE 1976-04-16 15:00:00 ET 46.0956 180.472 main 1070 933 _P____________ WP031976 -1 46.0956 -179.528 6 996 0 0 TC 2 33 65
1976092N11140 1976 36 EP CP MARIE 1976-04-16 18:00:00 ET 47.0000 182.000 main 919 _O____________ -1 47.0000 182.000 6 996 0 0 0 2 28 49

Digital Typhoon Data and Search

About IBTrACS Database

This database is a web-friendly format of International Best Track Archive for Climate Stewardship (IBTrACS), a global best track data archive curated by NOAA dating back to 1842.

Updated: 2021-12-08